Terminal Aerodrome Forecast
Issued by NWS

Home | Current Version | Previous Version | Text Only | Print | Product List | Glossary Off
Versions: 1 2 3 4 5 6 7 8 9 10 11 12 13 14 15 16 17 18 19 20 21 22 23 24 25 26 27 28 29 30 31 32 33 34 35 36 37 38 39 40 41 42 43 44 45 46 47 48 49 50

989
FTUS43 KGRB 130441 AAA
TAFRHI
TAF AMD
KRHI 130441Z 1305/1324 24003KT P6SM -SHSN SCT018 OVC035
      TEMPO 1305/1308 1SM -SN BKN018
     FM130800 15005KT 2SM -SN OVC025
     FM130900 12006KT 1 1/2SM -SN OVC012
     FM131500 05006KT 1SM -SN OVC010=

USA.gov is the U.S. government's official web portal to all federal, state and local government web resources and services.